Time;durP1;ratioP1;P1;durP2;ratioP2;P2;SDS_P1;SDS_P2;PMS_P1;PMS_P2;Temp;Humidity;BMP_temperature;BMP_pressure;BME280_temperature;BME280_humidity;BME280_pressure;Samples;Min_cycle;Max_cycle;Signal;HPM_P1;HPM_P2
2023/02/02 00:00:07;;;;;;;6.65;1.63;;;;;;;2.76;100.00;96243.88;1026530;28;20273;-64
2023/02/02 00:00:38;;;;;;;10.38;2.10;;;;;;;2.78;100.00;96235.88;1027243;28;20065;-63
2023/02/02 00:01:09;;;;;;;10.80;1.75;;;;;;;2.72;100.00;96234.91;1035317;28;20272;-64
2023/02/02 00:01:39;;;;;;;11.45;1.95;;;;;;;2.75;100.00;96236.28;1042613;28;20021;-65
2023/02/02 00:02:10;;;;;;;8.20;1.73;;;;;;;2.74;100.00;96238.06;1038567;28;20029;-64
2023/02/02 00:02:40;;;;;;;7.15;1.48;;;;;;;2.75;100.00;96236.28;1030582;28;20026;-64
2023/02/02 00:03:11;;;;;;;4.10;2.00;;;;;;;2.73;100.00;96240.88;1034321;28;20064;-64
2023/02/02 00:03:41;;;;;;;13.43;2.75;;;;;;;2.72;100.00;96247.88;1034715;28;20483;-65
2023/02/02 00:04:20;;;;;;;7.30;2.10;;;;;;;2.69;100.00;96237.09;1030553;28;20500;-64
2023/02/02 00:04:50;;;;;;;6.32;1.75;;;;;;;2.70;100.00;96246.47;1029602;28;20014;-64
2023/02/02 00:05:20;;;;;;;10.40;1.50;;;;;;;2.71;100.00;96235.88;1031803;28;20278;-64
2023/02/02 00:05:52;;;;;;;7.15;1.55;;;;;;;2.74;100.00;96239.88;1034488;28;20026;-63
2023/02/02 00:06:24;;;;;;;4.43;1.55;;;;;;;2.66;100.00;96238.28;1027410;28;20065;-64
2023/02/02 00:06:56;;;;;;;7.63;2.13;;;;;;;2.71;100.00;96232.50;1029570;28;20941;-64
2023/02/02 00:07:26;;;;;;;6.70;1.33;;;;;;;2.71;100.00;96245.47;1027147;28;20277;-64
2023/02/02 00:07:56;;;;;;;13.02;3.70;;;;;;;2.71;100.00;96241.06;1027190;28;20292;-63
2023/02/02 00:08:27;;;;;;;6.38;1.58;;;;;;;2.71;100.00;96230.69;1034758;28;20026;-64
2023/02/02 00:08:58;;;;;;;2.63;1.20;;;;;;;2.71;100.00;96248.03;1038581;28;20037;-64
2023/02/02 00:09:30;;;;;;;8.25;1.95;;;;;;;2.65;100.00;96226.34;1034940;28;20014;-64
2023/02/02 00:10:00;;;;;;;7.43;1.45;;;;;;;2.68;100.00;96238.88;1029878;28;20261;-63
2023/02/02 00:10:31;;;;;;;5.85;2.10;;;;;;;2.66;100.00;96224.56;1030438;28;20269;-64
2023/02/02 00:11:01;;;;;;;11.38;2.67;;;;;;;2.69;100.00;96226.75;1026618;28;20440;-63
2023/02/02 00:11:32;;;;;;;5.68;1.70;;;;;;;2.67;100.00;96239.88;1026551;28;20034;-64
2023/02/02 00:12:02;;;;;;;3.90;1.13;;;;;;;2.67;100.00;96244.28;1034573;28;20080;-64
2023/02/02 00:12:33;;;;;;;4.85;1.83;;;;;;;2.67;100.00;96244.28;1026582;28;20058;-63
2023/02/02 00:13:03;;;;;;;7.85;2.53;;;;;;;2.66;100.00;96243.47;1030644;28;20599;-63
2023/02/02 00:13:34;;;;;;;6.35;2.65;;;;;;;2.68;100.00;96238.09;1038538;28;20032;-64
2023/02/02 00:14:04;;;;;;;5.15;1.42;;;;;;;2.70;100.00;96238.69;1030391;28;20018;-64
2023/02/02 00:14:35;;;;;;;8.10;1.70;;;;;;;2.71;100.00;96235.09;1034909;28;20089;-63
2023/02/02 00:15:06;;;;;;;6.22;1.50;;;;;;;2.70;100.00;96236.09;1030458;28;20022;-63
2023/02/02 00:15:36;;;;;;;6.82;1.50;;;;;;;2.69;100.00;96229.34;1026235;28;20452;-64
2023/02/02 00:16:28;;;;;;;7.72;1.73;;;;;;;2.67;100.00;96231.31;1018679;29;20366;-64
2023/02/02 00:16:58;;;;;;;2.63;1.40;;;;;;;2.68;100.00;96235.50;1020726;29;20126;-63
2023/02/02 00:17:29;;;;;;;4.25;1.30;;;;;;;2.67;100.00;96239.09;1020688;28;20299;-63
2023/02/02 00:18:00;;;;;;;5.25;1.70;;;;;;;2.65;100.00;96235.88;1028326;28;20878;-63
2023/02/02 00:18:30;;;;;;;7.03;1.70;;;;;;;2.64;100.00;96236.88;1034471;28;20026;-64
2023/02/02 00:19:03;;;;;;;4.63;1.73;;;;;;;2.62;100.00;96233.72;1035746;28;20022;-63
2023/02/02 00:19:33;;;;;;;7.93;1.98;;;;;;;2.63;100.00;96232.72;1042474;28;20025;-64
2023/02/02 00:20:04;;;;;;;5.70;1.95;;;;;;;2.65;100.00;96228.94;1038264;28;20641;-64
2023/02/02 00:20:35;;;;;;;4.60;1.52;;;;;;;2.63;100.00;96232.72;1034522;28;20312;-63
2023/02/02 00:21:05;;;;;;;5.35;1.40;;;;;;;2.64;100.00;96231.72;1030213;28;20482;-64
2023/02/02 00:21:37;;;;;;;6.90;1.92;;;;;;;2.65;100.00;96230.72;1026583;28;20031;-64
2023/02/02 00:22:07;;;;;;;5.82;1.58;;;;;;;2.63;100.00;96233.50;1030558;28;20041;-63
2023/02/02 00:22:37;;;;;;;5.75;1.58;;;;;;;2.65;100.00;96230.72;1026397;28;20255;-62
2023/02/02 00:23:08;;;;;;;7.35;1.55;;;;;;;2.63;100.00;96227.53;1030628;28;20034;-63
2023/02/02 00:23:38;;;;;;;10.60;1.65;;;;;;;2.63;100.00;96233.50;1030194;28;20439;-64
2023/02/02 00:24:10;;;;;;;2.55;1.10;;;;;;;2.59;100.00;96214.97;1030526;28;20081;-63
2023/02/02 00:24:41;;;;;;;13.18;1.77;;;;;;;2.63;100.00;96227.53;1030369;28;20084;-64
2023/02/02 00:25:11;;;;;;;4.93;1.38;;;;;;;2.63;100.00;96235.31;1030341;28;20838;-63
2023/02/02 00:25:42;;;;;;;3.42;2.13;;;;;;;2.59;100.00;96227.16;1030411;28;20455;-63
2023/02/02 00:26:12;;;;;;;8.48;2.17;;;;;;;2.59;100.00;96235.72;1034877;28;20073;-65
2023/02/02 00:26:43;;;;;;;9.48;1.58;;;;;;;2.57;100.00;96227.31;1037956;28;20022;-63
2023/02/02 00:27:14;;;;;;;7.45;1.60;;;;;;;2.56;100.00;96217.97;1034796;28;20125;-64
2023/02/02 00:27:44;;;;;;;6.53;1.95;;;;;;;2.55;100.00;96221.56;1034108;28;20260;-64
2023/02/02 00:28:15;;;;;;;5.05;1.55;;;;;;;2.53;100.00;96238.28;1026644;28;20031;-65
2023/02/02 00:28:45;;;;;;;12.35;1.92;;;;;;;2.52;100.00;96244.47;1026448;28;20424;-65
2023/02/02 00:29:21;;;;;;;2.42;1.30;;;;;;;2.57;100.00;96229.13;1025722;28;20066;-65
2023/02/02 00:29:52;;;;;;;6.70;1.70;;;;;;;2.56;100.00;96232.72;1026616;28;20027;-65
2023/02/02 00:30:23;;;;;;;8.40;1.88;;;;;;;2.50;100.00;96225.75;1031228;28;20357;-63
2023/02/02 00:30:53;;;;;;;8.23;1.42;;;;;;;2.48;100.00;96220.78;1032330;28;20289;-65
2023/02/02 00:31:24;;;;;;;7.32;2.50;;;;;;;2.46;100.00;96214.97;1042767;28;20072;-66
2023/02/02 00:31:54;;;;;;;10.25;2.28;;;;;;;2.44;100.00;96234.31;1042912;28;20502;-66
2023/02/02 00:32:24;;;;;;;7.45;2.80;;;;;;;2.46;100.00;96227.13;1042375;28;20080;-66
2023/02/02 00:32:55;;;;;;;7.07;1.48;;;;;;;2.44;100.00;96223.94;1042276;28;20013;-64
2023/02/02 00:33:25;;;;;;;7.10;2.15;;;;;;;2.42;100.00;96200.84;1042680;28;20037;-65
2023/02/02 00:33:56;;;;;;;6.15;1.50;;;;;;;2.45;100.00;96215.16;1038146;28;20057;-64
2023/02/02 00:34:26;;;;;;;7.93;1.70;;;;;;;2.44;100.00;96218.75;1036602;28;20046;-65
2023/02/02 00:34:57;;;;;;;5.57;1.58;;;;;;;2.45;100.00;96215.16;1034660;28;20960;-66
2023/02/02 00:35:27;;;;;;;9.20;1.50;;;;;;;2.44;100.00;96213.59;1033951;28;20050;-64
2023/02/02 00:35:58;;;;;;;4.18;1.67;;;;;;;2.37;100.00;96208.41;1035039;28;20026;-65
2023/02/02 00:36:31;;;;;;;5.95;2.03;;;;;;;2.37;100.00;96223.94;1042960;28;20117;-65
2023/02/02 00:37:02;;;;;;;7.72;1.48;;;;;;;2.35;100.00;96215.59;1037951;28;20018;-64
2023/02/02 00:37:32;;;;;;;5.00;1.40;;;;;;;2.35;100.00;96205.22;1034808;28;20266;-65
2023/02/02 00:38:03;;;;;;;8.55;1.55;;;;;;;2.35;100.00;96205.22;1030300;28;20082;-66
2023/02/02 00:38:33;;;;;;;5.95;2.50;;;;;;;2.38;100.00;96212.56;1029865;28;20510;-66
2023/02/02 00:39:04;;;;;;;5.47;1.58;;;;;;;2.39;100.00;96214.19;1032415;28;20074;-63
2023/02/02 00:39:35;;;;;;;7.65;2.55;;;;;;;2.38;100.00;96215.16;1038000;28;20068;-63
2023/02/02 00:40:06;;;;;;;3.78;1.05;;;;;;;2.35;100.00;96202.66;1037785;28;20040;-65
2023/02/02 00:40:36;;;;;;;8.57;1.55;;;;;;;2.41;100.00;96212.19;1038694;28;20861;-64
2023/02/02 00:41:07;;;;;;;9.15;1.25;;;;;;;2.38;100.00;96219.56;1030093;28;20273;-64
2023/02/02 00:41:38;;;;;;;13.43;2.97;;;;;;;2.38;100.00;96209.97;1026366;28;20027;-64
2023/02/02 00:42:10;;;;;;;6.80;2.42;;;;;;;2.36;100.00;96228.31;1026770;28;20323;-64
2023/02/02 00:42:42;;;;;;;6.97;1.50;;;;;;;2.39;100.00;96216.78;1030653;28;20105;-63
2023/02/02 00:43:12;;;;;;;4.93;1.30;;;;;;;2.40;100.00;96212.38;1027224;28;20274;-65
2023/02/02 00:43:43;;;;;;;7.68;1.42;;;;;;;2.38;100.00;96215.16;1030483;28;20274;-64
2023/02/02 00:45:15;;;;;;;11.10;2.80;;;;;;;2.37;100.00;96208.41;1029339;28;20022;-63
2023/02/02 00:45:46;;;;;;;7.10;1.60;;;;;;;2.32;100.00;96216.78;1034678;28;20774;-63
2023/02/02 00:46:17;;;;;;;9.38;1.70;;;;;;;2.43;100.00;96210.19;1034740;28;20269;-63
2023/02/02 00:46:47;;;;;;;4.40;1.55;;;;;;;2.39;100.00;96201.25;1029710;28;20049;-63
2023/02/02 00:47:18;;;;;;;9.30;2.00;;;;;;;2.45;100.00;96213.41;1026474;28;20081;-64
2023/02/02 00:47:49;;;;;;;7.63;1.98;;;;;;;2.45;100.00;96204.81;1026335;28;21218;-63
2023/02/02 00:48:19;;;;;;;8.68;2.58;;;;;;;2.45;100.00;96208.22;1030642;28;20262;-63
2023/02/02 00:48:50;;;;;;;10.88;1.67;;;;;;;2.49;100.00;96206.81;1032774;28;20879;-60
2023/02/02 00:49:21;;;;;;;5.72;1.40;;;;;;;2.47;100.00;96213.97;1038402;28;20032;-63
2023/02/02 00:49:51;;;;;;;6.47;1.48;;;;;;;2.47;100.00;96203.63;1041339;28;20025;-65
2023/02/02 00:50:22;;;;;;;8.07;1.77;;;;;;;2.48;100.00;96214.78;1038246;28;20025;-64
2023/02/02 00:50:52;;;;;;;4.43;1.40;;;;;;;2.42;100.00;96206.03;1034132;28;20030;-64
2023/02/02 00:51:23;;;;;;;6.80;1.73;;;;;;;2.46;100.00;96212.41;1025939;28;20527;-63
2023/02/02 00:51:53;;;;;;;5.60;1.58;;;;;;;2.46;100.00;96220.16;1030072;28;20057;-64
2023/02/02 00:52:24;;;;;;;7.43;1.65;;;;;;;2.45;100.00;96216.00;1030477;28;20023;-63
2023/02/02 00:52:54;;;;;;;5.60;1.30;;;;;;;2.43;100.00;96210.19;1022292;28;20019;-62
2023/02/02 00:53:25;;;;;;;5.97;1.70;;;;;;;2.46;100.00;96212.41;1034417;28;20021;-63
2023/02/02 00:53:55;;;;;;;7.68;1.75;;;;;;;2.47;100.00;96211.38;1030332;28;20010;-64
2023/02/02 00:54:26;;;;;;;10.20;1.60;;;;;;;2.40;100.00;96208.00;1031445;28;20514;-64
2023/02/02 00:54:57;;;;;;;5.00;1.38;;;;;;;2.45;100.00;96210.81;1026146;28;20093;-64
2023/02/02 00:55:27;;;;;;;4.13;1.27;;;;;;;2.46;100.00;96227.13;1030611;28;20018;-66
2023/02/02 00:55:57;;;;;;;3.83;1.40;;;;;;;2.47;100.00;96218.38;1034253;28;20515;-64
2023/02/02 00:56:28;;;;;;;5.82;1.50;;;;;;;2.46;100.00;96217.56;1033013;28;20021;-64
2023/02/02 00:57:01;;;;;;;4.03;1.33;;;;;;;2.47;100.00;96213.19;1033699;28;20025;-64
2023/02/02 00:57:32;;;;;;;5.63;1.27;;;;;;;2.40;100.00;96208.00;1039914;28;20009;-65
2023/02/02 00:58:02;;;;;;;12.43;2.08;;;;;;;2.45;100.00;96210.81;1037551;28;20591;-63
2023/02/02 00:58:33;;;;;;;8.07;2.30;;;;;;;2.29;100.00;96180.91;1032200;28;20077;-64
2023/02/02 00:59:09;;;;;;;8.48;1.63;;;;;;;2.45;100.00;96210.00;1038309;28;20029;-63
2023/02/02 00:59:40;;;;;;;8.80;2.22;;;;;;;2.45;100.00;96207.41;1032550;28;20271;-65
2023/02/02 01:00:19;;;;;;;7.15;1.40;;;;;;;2.38;100.00;96204.81;1031140;28;20297;-65
2023/02/02 01:00:50;;;;;;;6.72;1.25;;;;;;;2.40;100.00;96202.03;1028353;28;20615;-64
2023/02/02 01:01:21;;;;;;;6.22;1.60;;;;;;;2.42;100.00;96206.03;1030217;28;20818;-64
2023/02/02 01:01:51;;;;;;;5.03;1.45;;;;;;;2.38;100.00;96209.19;1033902;28;20326;-63
2023/02/02 01:02:22;;;;;;;6.32;1.92;;;;;;;2.47;100.00;96213.19;1030499;28;20030;-64
2023/02/02 01:02:53;;;;;;;9.25;1.88;;;;;;;2.44;100.00;96204.00;1030145;28;20018;-63
2023/02/02 01:03:23;;;;;;;8.32;1.38;;;;;;;2.44;100.00;96211.78;1024350;28;20015;-64
2023/02/02 01:03:53;;;;;;;10.38;2.28;;;;;;;2.45;100.00;96217.75;1026291;28;20018;-64
2023/02/02 01:04:24;;;;;;;4.78;1.90;;;;;;;2.47;100.00;96208.81;1026317;28;20464;-63
2023/02/02 01:04:54;;;;;;;8.18;1.95;;;;;;;2.46;100.00;96203.84;1030337;28;20111;-64
2023/02/02 01:05:25;;;;;;;7.10;1.60;;;;;;;2.46;100.00;96211.59;1034565;28;20010;-64
2023/02/02 01:05:55;;;;;;;7.55;2.20;;;;;;;2.45;100.00;96210.00;1030102;28;20030;-64
2023/02/02 01:06:26;;;;;;;4.82;1.63;;;;;;;2.45;100.00;96221.16;1029629;28;20468;-64
2023/02/02 01:06:56;;;;;;;3.78;1.65;;;;;;;2.46;100.00;96219.38;1033462;28;20064;-64
2023/02/02 01:07:27;;;;;;;6.72;1.60;;;;;;;2.47;100.00;96208.81;1034280;28;20102;-63
2023/02/02 01:07:57;;;;;;;5.38;1.67;;;;;;;2.44;100.00;96214.38;1034425;28;20022;-64
2023/02/02 01:08:28;;;;;;;7.82;1.52;;;;;;;2.47;100.00;96205.41;1027874;28;20018;-64
2023/02/02 01:08:58;;;;;;;6.00;1.45;;;;;;;2.47;100.00;96197.66;1026318;28;20023;-64
2023/02/02 01:09:29;;;;;;;5.47;1.20;;;;;;;2.50;100.00;96213.59;1027529;28;20027;-63
2023/02/02 01:09:59;;;;;;;8.68;2.03;;;;;;;2.48;100.00;96215.59;1029428;28;20540;-64
2023/02/02 01:10:29;;;;;;;4.07;1.27;;;;;;;2.50;100.00;96217.97;1031946;28;20018;-63
2023/02/02 01:11:00;;;;;;;4.90;1.60;;;;;;;2.50;100.00;96200.63;1034359;28;20088;-64
2023/02/02 01:11:30;;;;;;;5.20;1.67;;;;;;;2.47;100.00;96202.81;1030321;28;20111;-64
2023/02/02 01:12:01;;;;;;;8.35;2.00;;;;;;;2.47;100.00;96213.19;1034449;28;20080;-64
2023/02/02 01:12:31;;;;;;;4.13;1.40;;;;;;;2.44;100.00;96204.00;1030205;28;20027;-63
2023/02/02 01:13:02;;;;;;;4.93;1.90;;;;;;;2.41;100.00;96194.06;1026107;28;20023;-64
2023/02/02 01:13:32;;;;;;;9.70;1.77;;;;;;;2.49;100.00;96211.22;1034547;28;20014;-63
2023/02/02 01:14:03;;;;;;;7.53;2.17;;;;;;;2.48;100.00;96213.00;1026193;28;20141;-64
2023/02/02 01:14:33;;;;;;;5.00;1.50;;;;;;;2.49;100.00;96217.19;1030511;28;20018;-65
2023/02/02 01:15:07;;;;;;;11.55;2.38;;;;;;;2.51;100.00;96204.81;1030170;28;20018;-65
2023/02/02 01:15:37;;;;;;;23.95;2.35;;;;;;;2.54;100.00;96217.38;1026529;28;20065;-65
2023/02/02 01:16:11;;;;;;;6.63;1.75;;;;;;;2.47;100.00;96192.47;1030308;28;20731;-64
2023/02/02 01:16:41;;;;;;;7.07;1.67;;;;;;;2.49;100.00;96206.81;1030514;28;20014;-64
2023/02/02 01:17:13;;;;;;;6.88;1.58;;;;;;;2.57;100.00;96223.94;1026957;28;20273;-64
2023/02/02 01:17:43;;;;;;;9.65;1.38;;;;;;;2.54;100.00;96204.41;1030401;28;20109;-64
2023/02/02 01:18:14;;;;;;;7.85;1.98;;;;;;;2.54;100.00;96219.16;1030291;28;20265;-64
2023/02/02 01:18:44;;;;;;;10.43;1.60;;;;;;;2.56;100.00;96207.59;1030872;28;20038;-66
2023/02/02 01:19:15;;;;;;;4.85;1.27;;;;;;;2.55;100.00;96200.84;1034138;28;20022;-64
2023/02/02 01:19:46;;;;;;;4.30;1.40;;;;;;;2.55;100.00;96203.44;1030264;28;20105;-65
2023/02/02 01:20:18;;;;;;;4.60;1.10;;;;;;;2.51;100.00;96191.06;1030322;28;20026;-64
2023/02/02 01:20:58;;;;;;;7.15;1.70;;;;;;;2.49;100.00;96183.50;1026909;28;20559;-63
2023/02/02 01:21:28;;;;;;;10.18;2.42;;;;;;;2.52;100.00;96193.47;1029591;28;20293;-64
2023/02/02 01:21:59;;;;;;;7.18;1.38;;;;;;;2.51;100.00;96204.81;1032652;28;21081;-64
2023/02/02 01:22:29;;;;;;;5.22;1.35;;;;;;;2.50;100.00;96203.22;1034075;28;20034;-64
2023/02/02 01:23:00;;;;;;;7.32;1.77;;;;;;;2.53;100.00;96186.50;1030436;28;20025;-64
2023/02/02 01:23:30;;;;;;;6.82;1.30;;;;;;;2.54;100.00;96194.03;1038416;28;20025;-64
2023/02/02 01:24:01;;;;;;;7.20;1.40;;;;;;;2.54;100.00;96198.44;1038004;28;20422;-62
2023/02/02 01:24:31;;;;;;;6.90;1.67;;;;;;;2.54;100.00;96198.44;1030542;28;20030;-64
2023/02/02 01:25:02;;;;;;;7.20;1.65;;;;;;;2.56;100.00;96209.41;1030283;28;20019;-64
2023/02/02 01:25:37;;;;;;;4.20;1.40;;;;;;;2.55;100.00;96193.06;1026409;28;20077;-64
2023/02/02 01:26:08;;;;;;;7.90;1.65;;;;;;;2.51;100.00;96199.63;1030535;28;20022;-64
2023/02/02 01:26:39;;;;;;;4.35;1.45;;;;;;;2.57;100.00;96203.22;1030540;28;20802;-64
2023/02/02 01:27:10;;;;;;;8.07;1.70;;;;;;;2.56;100.00;96206.81;1031203;28;20369;-63
2023/02/02 01:27:40;;;;;;;7.80;1.83;;;;;;;2.56;100.00;96197.25;1033893;28;20468;-64
2023/02/02 01:28:11;;;;;;;8.85;1.98;;;;;;;2.53;100.00;96207.22;1025906;28;20137;-65
2023/02/02 01:28:41;;;;;;;10.40;1.90;;;;;;;2.53;100.00;96202.81;1022450;28;20096;-64
2023/02/02 01:29:12;;;;;;;11.45;1.67;;;;;;;2.52;100.00;96201.25;1026094;28;20081;-65
2023/02/02 01:29:42;;;;;;;7.57;1.85;;;;;;;2.51;100.00;96204.81;1030635;28;20481;-64
2023/02/02 01:30:13;;;;;;;5.60;1.30;;;;;;;2.56;100.00;96205.00;1030334;28;20057;-64
2023/02/02 01:30:43;;;;;;;4.93;1.38;;;;;;;2.52;100.00;96209.00;1026904;28;20887;-64
2023/02/02 01:31:16;;;;;;;4.95;1.50;;;;;;;2.55;100.00;96205.22;1038986;28;20018;-64
2023/02/02 01:31:46;;;;;;;6.05;1.40;;;;;;;2.57;100.00;96198.84;1030787;28;20053;-64
2023/02/02 01:32:17;;;;;;;6.57;1.90;;;;;;;2.62;100.00;96213.00;1031264;28;20438;-65
2023/02/02 01:32:47;;;;;;;5.00;1.50;;;;;;;2.62;100.00;96215.59;1033016;28;20031;-62
2023/02/02 01:33:18;;;;;;;6.22;1.35;;;;;;;2.56;100.00;96202.44;1034333;28;20034;-64
2023/02/02 01:33:48;;;;;;;6.00;1.50;;;;;;;2.64;100.00;96224.72;1031152;28;20023;-64
2023/02/02 01:34:19;;;;;;;7.78;1.58;;;;;;;2.63;100.00;96219.75;1039346;28;20155;-64
2023/02/02 01:34:49;;;;;;;3.30;1.50;;;;;;;2.62;100.00;96210.41;1038900;28;20853;-65
2023/02/02 01:35:20;;;;;;;3.97;2.15;;;;;;;2.51;100.00;96185.88;1035217;28;20018;-64
2023/02/02 01:35:52;;;;;;;6.43;1.80;;;;;;;2.63;100.00;96219.75;1038724;28;20075;-64
2023/02/02 01:36:22;;;;;;;9.18;1.27;;;;;;;2.59;100.00;96209.00;1026722;28;20026;-67
2023/02/02 01:36:53;;;;;;;12.63;1.98;;;;;;;2.65;100.00;96194.44;1026519;28;20262;-65
2023/02/02 01:37:23;;;;;;;3.47;1.27;;;;;;;2.66;100.00;96201.22;1026549;28;20019;-63
2023/02/02 01:37:54;;;;;;;4.28;1.20;;;;;;;2.60;100.00;96206.19;1027520;28;20483;-63
2023/02/02 01:38:24;;;;;;;5.30;1.67;;;;;;;2.60;100.00;96208.00;1035079;28;20022;-63
2023/02/02 01:38:55;;;;;;;5.30;1.63;;;;;;;2.62;100.00;96208.59;1031028;28;20057;-64
2023/02/02 01:39:25;;;;;;;5.82;2.08;;;;;;;2.64;100.00;96235.09;1034713;28;20053;-64
2023/02/02 01:39:58;;;;;;;7.18;2.22;;;;;;;2.65;100.00;96225.53;1035347;28;20057;-64
2023/02/02 01:40:29;;;;;;;5.55;1.50;;;;;;;2.67;100.00;96213.19;1034868;28;20311;-65
2023/02/02 01:40:59;;;;;;;4.90;2.15;;;;;;;2.66;100.00;96211.59;1034279;28;20033;-63
2023/02/02 01:41:30;;;;;;;7.22;1.80;;;;;;;2.65;100.00;96209.97;1030365;28;20804;-64
2023/02/02 01:42:00;;;;;;;8.00;1.80;;;;;;;2.65;100.00;96215.16;1026280;28;20046;-64
2023/02/02 01:42:31;;;;;;;5.57;1.30;;;;;;;2.65;100.00;96202.22;1026403;28;20050;-64
2023/02/02 01:43:01;;;;;;;5.30;1.25;;;;;;;2.64;100.00;96208.41;1028568;28;20030;-64
2023/02/02 01:43:44;;;;;;;5.03;1.10;;;;;;;2.66;100.00;96207.22;1034516;28;20029;-64
2023/02/02 01:44:52;;;;;;;5.32;2.03;;;;;;;2.61;100.00;96219.94;1034296;28;20685;-63
2023/02/02 01:45:25;;;;;;;4.90;1.65;;;;;;;2.62;100.00;96211.19;1034981;28;20269;-63
2023/02/02 01:45:56;;;;;;;6.97;1.00;;;;;;;2.66;100.00;96206.41;1033077;28;20808;-63
2023/02/02 01:46:34;;;;;;;7.38;1.60;;;;;;;2.66;100.00;96201.22;1020027;28;20267;-65
2023/02/02 01:47:04;;;;;;;5.88;2.40;;;;;;;2.64;100.00;96203.22;1019194;29;20275;-63
2023/02/02 01:47:39;;;;;;;7.88;1.65;;;;;;;2.62;100.00;96210.41;1024809;28;20373;-64
2023/02/02 01:48:10;;;;;;;8.32;1.60;;;;;;;2.61;100.00;96196.63;1035784;28;20346;-64
2023/02/02 01:48:48;;;;;;;7.82;1.58;;;;;;;2.67;100.00;96195.03;1034357;28;20261;-63
2023/02/02 01:49:19;;;;;;;5.72;1.90;;;;;;;2.62;100.00;96195.66;1018096;28;20016;-63
2023/02/02 01:49:49;;;;;;;10.38;2.47;;;;;;;2.63;100.00;96197.25;1024654;28;20270;-65
2023/02/02 01:50:22;;;;;;;4.40;1.20;;;;;;;2.66;100.00;96198.66;1026362;28;20026;-62
2023/02/02 01:50:55;;;;;;;4.18;1.48;;;;;;;2.67;100.00;96202.81;1027068;28;20025;-63
2023/02/02 01:51:45;;;;;;;3.78;1.70;;;;;;;2.66;100.00;96207.22;1029460;28;20265;-64
2023/02/02 01:52:16;;;;;;;5.97;1.63;;;;;;;2.65;100.00;96208.22;1029630;28;20250;-62
2023/02/02 01:52:48;;;;;;;6.95;1.38;;;;;;;2.66;100.00;96196.06;1026336;28;20011;-61
2023/02/02 01:53:18;;;;;;;5.15;1.30;;;;;;;2.65;100.00;96189.25;1025820;28;20251;-64
2023/02/02 01:53:50;;;;;;;4.45;1.50;;;;;;;2.64;100.00;96201.41;1029803;28;20249;-64
2023/02/02 01:54:38;;;;;;;4.03;1.60;;;;;;;2.57;100.00;96170.34;1026290;28;20022;-63
2023/02/02 01:55:13;;;;;;;6.47;1.38;;;;;;;2.64;100.00;96200.63;1030208;28;20261;-62
2023/02/02 01:55:43;;;;;;;5.55;1.45;;;;;;;2.63;100.00;96206.81;1018307;29;20734;-63
2023/02/02 01:56:21;;;;;;;6.43;1.40;;;;;;;2.62;100.00;96193.06;1030129;28;20261;-64
2023/02/02 01:57:13;;;;;;;8.05;1.98;;;;;;;2.59;100.00;96186.50;1033665;28;20010;-64
2023/02/02 01:58:05;;;;;;;5.93;1.40;;;;;;;2.61;100.00;96186.28;1037419;28;20777;-63
2023/02/02 01:58:37;;;;;;;3.05;1.33;;;;;;;2.59;100.00;96186.50;1024623;28;20260;-63
2023/02/02 01:59:07;;;;;;;8.35;2.00;;;;;;;2.58;100.00;96184.09;1024247;28;20258;-64
2023/02/02 01:59:37;;;;;;;5.60;1.60;;;;;;;2.58;100.00;96195.25;1026287;28;20954;-63
2023/02/02 02:00:12;;;;;;;10.98;2.13;;;;;;;2.60;100.00;96195.84;1029655;28;20018;-63
2023/02/02 02:00:42;;;;;;;4.55;1.58;;;;;;;2.58;100.00;96200.44;1026132;28;20023;-63
2023/02/02 02:01:13;;;;;;;4.82;1.33;;;;;;;2.59;100.00;96196.06;1014444;29;20257;-63
2023/02/02 02:01:44;;;;;;;6.30;1.20;;;;;;;2.54;100.00;96199.22;1017104;29;20024;-63
2023/02/02 02:02:15;;;;;;;10.52;1.55;;;;;;;2.56;100.00;96181.72;1030074;28;20046;-63
2023/02/02 02:02:46;;;;;;;12.27;1.80;;;;;;;2.62;100.00;96206.03;1022410;28;20782;-63
2023/02/02 02:03:19;;;;;;;3.55;1.33;;;;;;;2.65;100.00;96199.63;1022820;28;20035;-63
2023/02/02 02:03:50;;;;;;;11.73;1.77;;;;;;;2.60;100.00;96198.44;1030833;28;21016;-60
2023/02/02 02:04:21;;;;;;;4.57;1.67;;;;;;;2.62;100.00;96194.88;1031595;28;20262;-62
2023/02/02 02:04:51;;;;;;;4.78;1.20;;;;;;;2.58;100.00;96178.91;1030367;28;20014;-63
2023/02/02 02:05:30;;;;;;;11.02;1.50;;;;;;;2.64;100.00;96182.50;1031110;28;20022;-65
2023/02/02 02:06:04;;;;;;;6.20;1.92;;;;;;;2.62;100.00;96177.53;1026975;28;20050;-63
2023/02/02 02:06:34;;;;;;;10.23;2.15;;;;;;;2.59;100.00;96191.66;1028142;28;20258;-61
2023/02/02 02:07:05;;;;;;;7.55;1.48;;;;;;;2.60;100.00;96202.81;1021062;29;20263;-62
2023/02/02 02:07:37;;;;;;;11.25;1.67;;;;;;;2.63;100.00;96199.03;1019918;29;20027;-65
2023/02/02 02:08:28;;;;;;;13.23;1.70;;;;;;;2.57;100.00;96193.66;1026868;28;20031;-64
2023/02/02 02:09:02;;;;;;;10.32;1.73;;;;;;;2.57;100.00;96191.06;1034996;28;20262;-62
2023/02/02 02:09:32;;;;;;;8.35;2.35;;;;;;;2.62;100.00;96198.25;1034966;28;20352;-64
2023/02/02 02:10:03;;;;;;;6.13;1.90;;;;;;;2.65;100.00;96203.03;1034740;28;20618;-64
2023/02/02 02:10:34;;;;;;;6.03;1.45;;;;;;;2.63;100.00;96189.47;1033685;28;20022;-64
2023/02/02 02:11:04;;;;;;;10.88;1.50;;;;;;;2.62;100.00;96189.69;1031412;28;20018;-63
2023/02/02 02:11:35;;;;;;;4.05;1.30;;;;;;;2.62;100.00;96200.03;1030894;28;20097;-64
2023/02/02 02:12:13;;;;;;;6.15;1.60;;;;;;;2.54;100.00;96186.28;1022840;28;20027;-63
2023/02/02 02:12:44;;;;;;;5.75;1.52;;;;;;;2.59;100.00;96199.44;1027123;28;20499;-63
2023/02/02 02:13:14;;;;;;;6.35;1.60;;;;;;;2.60;100.00;96185.47;1030960;28;20281;-64
2023/02/02 02:16:51;;;;;;;7.82;1.58;;;;;;;2.59;100.00;96178.72;1038240;28;20268;-64
2023/02/02 02:17:30;;;;;;;7.15;1.50;;;;;;;2.59;100.00;96202.03;1028099;28;20265;-64
2023/02/02 02:18:00;;;;;;;4.88;1.05;;;;;;;2.58;100.00;96195.25;1026282;28;20736;-63
2023/02/02 02:18:47;;;;;;;6.07;1.60;;;;;;;2.56;100.00;96197.25;1030795;28;20253;-65
2023/02/02 02:26:32;;;;;;;3.88;1.23;;;;;;;2.56;100.00;96199.84;1038984;28;20010;-64
2023/02/02 02:26:42;;;;;;;5.53;1.42;;;;;;;2.44;100.00;96209.19;1039395;28;20260;-62
2023/02/02 02:27:18;;;;;;;6.38;1.42;;;;;;;2.46;100.00;96196.84;1033459;28;20364;-63
2023/02/02 02:28:19;;;;;;;4.25;1.75;;;;;;;2.45;100.00;96200.44;1035713;28;20259;-63
2023/02/02 02:29:02;;;;;;;3.28;1.25;;;;;;;2.46;100.00;96203.84;1036680;28;20357;-64
2023/02/02 02:30:11;;;;;;;3.83;1.52;;;;;;;2.44;100.00;96204.00;1033935;28;20276;-64
2023/02/02 02:31:18;;;;;;;2.72;1.25;;;;;;;2.43;100.00;96191.28;1030025;28;20698;-63
2023/02/02 02:32:00;;;;;;;8.80;1.80;;;;;;;2.41;100.00;96193.25;1031473;28;20272;-64
2023/02/02 02:32:55;;;;;;;7.45;1.45;;;;;;;2.41;100.00;96199.22;1030105;28;20333;-62
2023/02/02 02:33:37;;;;;;;7.20;1.30;;;;;;;2.39;100.00;96190.09;1032378;28;20257;-64
2023/02/02 02:34:32;;;;;;;7.15;1.50;;;;;;;2.39;100.00;96180.53;1028886;28;20382;-63
2023/02/02 02:35:09;;;;;;;5.07;1.58;;;;;;;2.35;100.00;96179.34;1035621;28;20276;-64
2023/02/02 02:36:01;;;;;;;6.05;1.98;;;;;;;2.39;100.00;96187.50;1023835;28;20326;-63
2023/02/02 02:36:34;;;;;;;3.95;1.50;;;;;;;2.37;100.00;96187.69;1027844;28;20266;-64
2023/02/02 02:37:11;;;;;;;6.35;1.20;;;;;;;2.38;100.00;96184.09;1023333;29;21198;-63
2023/02/02 02:38:03;;;;;;;12.60;1.55;;;;;;;2.39;100.00;96187.50;1039473;28;20638;-64
2023/02/02 02:38:40;;;;;;;5.95;1.58;;;;;;;2.45;100.00;96190.09;1031725;28;20333;-64
2023/02/02 02:39:26;;;;;;;5.25;1.52;;;;;;;2.45;100.00;96207.41;1023717;28;20410;-64
2023/02/02 02:40:17;;;;;;;9.50;1.60;;;;;;;2.44;100.00;96193.66;1031659;28;20292;-64
2023/02/02 02:40:54;;;;;;;5.80;1.80;;;;;;;2.48;100.00;96199.22;1037331;28;20265;-64
2023/02/02 02:41:28;;;;;;;10.60;1.80;;;;;;;2.43;100.00;96188.69;1039158;28;20022;-64
2023/02/02 02:42:06;;;;;;;5.80;1.75;;;;;;;2.49;100.00;96186.09;1035846;28;20989;-62
2023/02/02 02:42:43;;;;;;;7.65;1.77;;;;;;;2.48;100.00;96204.41;1039713;28;20260;-64
2023/02/02 02:43:34;;;;;;;6.68;1.75;;;;;;;2.50;100.00;96192.06;1039658;28;20797;-63
2023/02/02 02:44:08;;;;;;;6.43;1.60;;;;;;;2.51;100.00;96198.84;1027594;28;20332;-63
2023/02/02 02:44:38;;;;;;;4.82;1.55;;;;;;;2.47;100.00;96184.69;1035398;28;20256;-61
2023/02/02 02:45:09;;;;;;;11.50;1.70;;;;;;;2.49;100.00;96186.09;1039690;28;20706;-65
2023/02/02 02:45:39;;;;;;;8.68;1.52;;;;;;;2.53;100.00;96191.66;1027288;28;20111;-63